Time;durP1;ratioP1;P1;durP2;ratioP2;P2;SDS_P1;SDS_P2;PMS_P1;PMS_P2;Temp;Humidity;BMP_temperature;BMP_pressure;BME280_temperature;BME280_humidity;BME280_pressure;Samples;Min_cycle;Max_cycle;Signal;HPM_P1;HPM_P2
2023/01/28 00:01:23;;;;;;;3.07;2.60;;;-2.40;29.10;;;;;;4950767;28;20498;-53
2023/01/28 00:03:50;;;;;;;2.80;2.37;;;-2.40;27.40;;;;;;4953059;28;20477;-52
2023/01/28 00:06:17;;;;;;;2.97;2.70;;;-2.40;28.40;;;;;;4950438;28;20469;-53
2023/01/28 00:08:44;;;;;;;2.87;2.67;;;-2.50;30.00;;;;;;4954816;28;20957;-53
2023/01/28 00:11:12;;;;;;;3.60;3.20;;;-2.40;29.70;;;;;;4962509;28;20552;-54
2023/01/28 00:13:39;;;;;;;7.50;4.90;;;-2.40;30.30;;;;;;4951561;28;20504;-51
2023/01/28 00:16:07;;;;;;;5.33;4.57;;;-2.40;32.20;;;;;;4952822;29;20495;-53
2023/01/28 00:18:36;;;;;;;8.23;6.10;;;-2.40;32.50;;;;;;4953284;29;20486;-52
2023/01/28 00:21:05;;;;;;;7.50;6.10;;;-2.30;31.50;;;;;;4949962;28;20592;-54
2023/01/28 00:23:33;;;;;;;6.50;5.50;;;-2.30;31.10;;;;;;4956198;28;20501;-53
2023/01/28 00:26:00;;;;;;;7.17;5.40;;;-2.20;30.80;;;;;;4952650;29;20561;-53
2023/01/28 00:28:28;;;;;;;5.10;4.60;;;-2.20;29.40;;;;;;4951897;28;20600;-52
2023/01/28 00:30:54;;;;;;;6.23;5.10;;;-2.10;30.00;;;;;;4946638;28;20545;-54
2023/01/28 00:33:21;;;;;;;4.77;4.10;;;-2.00;30.00;;;;;;4952060;28;20845;-52
2023/01/28 00:35:57;;;;;;;6.27;3.83;;;-2.00;30.10;;;;;;4957634;28;20558;-52
2023/01/28 00:38:24;;;;;;;3.20;3.00;;;-1.90;31.80;;;;;;4950019;28;21555;-52
2023/01/28 00:40:50;;;;;;;3.00;2.70;;;-1.90;33.50;;;;;;4952577;28;20576;-52
2023/01/28 00:43:17;;;;;;;3.00;2.80;;;-1.80;34.50;;;;;;4951329;28;20549;-52
2023/01/28 00:45:43;;;;;;;4.90;3.50;;;-1.70;34.10;;;;;;4960661;28;20509;-52
2023/01/28 00:48:10;;;;;;;2.57;2.00;;;-1.70;35.10;;;;;;4955487;28;20587;-54
2023/01/28 00:50:38;;;;;;;4.23;2.57;;;-1.70;35.90;;;;;;4959113;28;20560;-53
2023/01/28 00:53:06;;;;;;;3.70;2.80;;;-1.70;37.20;;;;;;4956172;29;20449;-52
2023/01/28 00:55:32;;;;;;;5.00;3.50;;;-1.60;36.50;;;;;;4963027;28;20499;-52
2023/01/28 00:57:59;;;;;;;2.73;2.53;;;-1.60;33.10;;;;;;4954215;28;20982;-53
2023/01/28 01:00:26;;;;;;;6.03;3.90;;;-1.60;33.80;;;;;;4958950;28;20551;-52
2023/01/28 01:02:52;;;;;;;4.63;3.27;;;-1.50;33.10;;;;;;4962311;28;21014;-52
2023/01/28 01:05:19;;;;;;;6.93;3.90;;;-1.50;33.90;;;;;;4955192;28;20554;-54
2023/01/28 01:07:45;;;;;;;3.57;3.27;;;-1.50;34.00;;;;;;4953422;28;20576;-51
2023/01/28 01:10:16;;;;;;;3.07;2.87;;;-1.50;36.40;;;;;;4955829;28;20475;-52
2023/01/28 01:12:45;;;;;;;2.93;2.70;;;-1.40;37.10;;;;;;4963810;28;20501;-52
2023/01/28 01:15:11;;;;;;;2.53;2.30;;;-1.40;35.40;;;;;;4975140;28;20536;-52
2023/01/28 01:17:38;;;;;;;3.27;2.97;;;-1.40;36.70;;;;;;4959400;28;20572;-54
2023/01/28 01:20:08;;;;;;;3.87;2.70;;;-1.30;35.90;;;;;;4952891;28;20917;-54
2023/01/28 01:22:35;;;;;;;6.60;2.70;;;-1.30;36.30;;;;;;4956696;28;20565;-53
2023/01/28 01:25:02;;;;;;;2.23;2.10;;;-1.30;37.20;;;;;;4969302;28;20488;-53
2023/01/28 01:27:30;;;;;;;2.50;2.27;;;-1.20;35.20;;;;;;4962037;28;20535;-52
2023/01/28 01:29:57;;;;;;;2.70;2.50;;;-1.30;34.90;;;;;;4952824;29;20557;-52
2023/01/28 01:32:24;;;;;;;2.70;2.47;;;-1.20;36.00;;;;;;4961412;28;20468;-51
2023/01/28 01:34:51;;;;;;;4.13;2.70;;;-1.20;33.60;;;;;;4955917;28;20537;-54
2023/01/28 01:37:17;;;;;;;2.93;2.63;;;-1.20;33.60;;;;;;4951603;28;20584;-52
2023/01/28 01:39:44;;;;;;;3.40;2.57;;;-1.20;34.00;;;;;;4956628;28;20540;-52
2023/01/28 01:42:13;;;;;;;4.60;2.70;;;-1.20;34.30;;;;;;4956845;28;20488;-53
2023/01/28 01:45:07;;;;;;;2.73;2.50;;;-1.20;35.70;;;;;;4952405;28;20552;-53
2023/01/28 01:47:40;;;;;;;3.07;2.77;;;-1.20;32.50;;;;;;4948069;28;20490;-52
2023/01/28 01:50:12;;;;;;;3.50;3.00;;;-1.10;30.80;;;;;;4953131;28;20548;-53
2023/01/28 01:52:41;;;;;;;3.10;2.90;;;-1.10;33.30;;;;;;4964677;28;20535;-52
2023/01/28 01:55:13;;;;;;;2.43;2.20;;;-1.10;35.40;;;;;;4958873;28;20549;-52
2023/01/28 01:57:40;;;;;;;3.57;2.67;;;-1.10;35.30;;;;;;4953684;28;20517;-52
2023/01/28 02:00:11;;;;;;;2.80;2.60;;;-1.10;34.30;;;;;;4959399;28;20489;-52
2023/01/28 02:02:41;;;;;;;2.67;2.47;;;-1.10;34.00;;;;;;4961281;28;20587;-52
2023/01/28 02:05:09;;;;;;;4.20;2.80;;;-1.00;35.90;;;;;;4941507;28;20581;-52
2023/01/28 02:07:36;;;;;;;2.77;2.53;;;-1.00;34.70;;;;;;4952446;28;20499;-53
2023/01/28 02:10:05;;;;;;;2.97;2.60;;;-1.00;37.90;;;;;;4942204;28;20473;-52
2023/01/28 02:12:36;;;;;;;10.00;2.60;;;-0.90;41.90;;;;;;4950681;28;20561;-52
2023/01/28 02:15:06;;;;;;;2.57;2.37;;;-0.90;42.80;;;;;;4954420;28;20520;-52
2023/01/28 02:17:36;;;;;;;5.47;2.70;;;-0.90;41.80;;;;;;4954269;28;20485;-53
2023/01/28 02:20:06;;;;;;;2.30;2.00;;;-0.90;42.20;;;;;;4953141;28;20503;-53
2023/01/28 02:22:56;;;;;;;4.83;2.63;;;-0.90;41.00;;;;;;4950680;28;20500;-53
2023/01/28 02:25:49;;;;;;;4.27;2.50;;;-0.90;41.70;;;;;;4955883;28;21019;-52
2023/01/28 02:28:24;;;;;;;2.53;2.33;;;-0.90;42.80;;;;;;4945578;28;20568;-52
2023/01/28 02:30:57;;;;;;;2.50;2.40;;;-0.80;42.80;;;;;;4953578;28;20500;-52
2023/01/28 02:33:31;;;;;;;6.10;2.67;;;-0.80;42.80;;;;;;4963384;28;20469;-52
2023/01/28 02:36:06;;;;;;;4.20;2.20;;;-0.80;41.90;;;;;;4951919;28;20465;-52
2023/01/28 02:38:39;;;;;;;2.57;2.40;;;-0.80;45.90;;;;;;4950935;28;20501;-54
2023/01/28 02:41:11;;;;;;;3.43;1.90;;;-0.80;46.50;;;;;;4959446;28;20504;-53
2023/01/28 02:43:40;;;;;;;2.77;2.43;;;-0.80;50.00;;;;;;4951913;28;21020;-52
2023/01/28 02:49:23;;;;;;;5.33;2.57;;;-0.80;49.80;;;;;;4951906;28;20500;-54
2023/01/28 02:52:12;;;;;;;1.93;1.83;;;-0.70;49.20;;;;;;4959347;28;20491;-52
2023/01/28 02:54:44;;;;;;;2.17;1.93;;;-0.60;53.20;;;;;;4947790;28;20513;-52
2023/01/28 02:57:24;;;;;;;2.37;2.17;;;-0.70;55.90;;;;;;4960229;28;20498;-52
2023/01/28 03:00:02;;;;;;;2.13;1.93;;;-0.60;61.20;;;;;;4958948;28;20500;-54
2023/01/28 03:02:35;;;;;;;3.20;1.90;;;-0.60;65.20;;;;;;4957985;28;20932;-51
2023/01/28 03:05:07;;;;;;;2.10;2.00;;;-0.50;66.60;;;;;;4941817;28;20498;-53
2023/01/28 03:07:37;;;;;;;4.27;2.30;;;-0.50;67.80;;;;;;4951025;28;20592;-53
2023/01/28 03:10:06;;;;;;;4.40;2.53;;;-0.50;77.30;;;;;;4960203;28;20496;-52
2023/01/28 03:37:52;;;;;;;4.80;2.07;;;-0.40;83.90;;;;;;4954669;28;20443;-53
2023/01/28 03:40:19;;;;;;;1.90;1.80;;;-0.40;85.80;;;;;;4951774;28;20496;-53
2023/01/28 03:42:46;;;;;;;3.17;2.80;;;-0.40;87.60;;;;;;4953058;28;20540;-52
2023/01/28 03:45:13;;;;;;;2.80;1.90;;;-0.40;78.60;;;;;;4952428;28;20510;-52
2023/01/28 03:47:42;;;;;;;2.00;1.83;;;-0.40;72.40;;;;;;4961916;28;20544;-52
2023/01/28 03:50:09;;;;;;;6.40;2.20;;;-0.50;68.20;;;;;;4947379;29;20453;-53
2023/01/28 03:52:36;;;;;;;4.30;2.50;;;-0.40;67.40;;;;;;4958796;28;20461;-52
2023/01/28 03:55:11;;;;;;;4.10;2.10;;;-0.40;68.00;;;;;;4951911;28;20489;-53
2023/01/28 03:57:38;;;;;;;3.73;2.60;;;-0.40;68.50;;;;;;4950508;28;20512;-52
2023/01/28 04:00:06;;;;;;;2.20;2.00;;;-0.40;73.30;;;;;;4956348;28;21030;-53
2023/01/28 04:02:34;;;;;;;2.97;2.20;;;-0.40;74.80;;;;;;4951918;29;20481;-52
2023/01/28 04:05:05;;;;;;;1.57;1.47;;;-0.40;65.50;;;;;;4951766;29;20813;-53
2023/01/28 04:07:32;;;;;;;3.87;2.40;;;-0.40;67.10;;;;;;4954441;28;20517;-52
2023/01/28 04:10:00;;;;;;;1.50;1.50;;;-0.40;60.40;;;;;;4952253;28;20474;-52
2023/01/28 04:12:27;;;;;;;2.03;1.87;;;-0.50;59.80;;;;;;4951147;29;20465;-53
2023/01/28 04:14:53;;;;;;;2.67;2.50;;;-0.50;59.10;;;;;;4949685;28;20466;-52
2023/01/28 04:17:20;;;;;;;5.57;3.70;;;-0.40;56.80;;;;;;4945842;28;20569;-52
2023/01/28 04:19:46;;;;;;;4.87;4.40;;;-0.40;55.80;;;;;;4946775;28;20560;-52
2023/01/28 04:22:14;;;;;;;4.93;3.73;;;-0.40;66.50;;;;;;4954235;28;20572;-52
2023/01/28 04:24:41;;;;;;;5.47;3.50;;;-0.40;70.10;;;;;;4953243;28;20550;-53
2023/01/28 04:27:07;;;;;;;5.70;3.73;;;-0.30;64.10;;;;;;4954715;28;20591;-56
2023/01/28 04:29:34;;;;;;;3.70;3.40;;;-0.40;63.90;;;;;;4960669;28;21110;-56
2023/01/28 04:32:00;;;;;;;7.73;4.10;;;-0.40;60.00;;;;;;4955915;28;20872;-56
2023/01/28 04:34:28;;;;;;;9.10;3.87;;;-0.40;56.50;;;;;;4960897;28;20496;-56
2023/01/28 04:36:54;;;;;;;3.53;3.03;;;-0.40;62.90;;;;;;4957124;28;20547;-55
2023/01/28 04:39:22;;;;;;;3.80;3.50;;;-0.30;60.30;;;;;;4953828;28;20849;-56
2023/01/28 04:41:49;;;;;;;3.97;2.90;;;-0.40;57.70;;;;;;4954436;28;20560;-55
2023/01/28 04:44:16;;;;;;;3.37;3.00;;;-0.40;58.40;;;;;;4959585;28;20501;-55
2023/01/28 04:46:43;;;;;;;3.97;3.67;;;-0.40;56.50;;;;;;4955351;28;20489;-55
2023/01/28 04:49:09;;;;;;;3.83;3.57;;;-0.40;53.60;;;;;;4964293;28;20569;-54
2023/01/28 04:51:36;;;;;;;3.30;3.00;;;-0.40;55.30;;;;;;4955041;28;20501;-55
2023/01/28 04:54:02;;;;;;;3.47;3.17;;;-0.40;53.70;;;;;;4962900;28;20555;-55
2023/01/28 04:56:30;;;;;;;3.33;3.00;;;-0.40;52.50;;;;;;4958104;28;20519;-55
2023/01/28 04:58:57;;;;;;;4.10;3.80;;;-0.40;52.30;;;;;;4949558;28;21042;-55
2023/01/28 05:01:23;;;;;;;3.80;3.50;;;-0.30;52.80;;;;;;4952559;28;20508;-55
2023/01/28 05:03:50;;;;;;;4.07;3.53;;;-0.40;50.40;;;;;;4952214;29;20521;-55
2023/01/28 05:06:17;;;;;;;4.73;3.27;;;-0.40;48.50;;;;;;4955032;28;20485;-55
2023/01/28 05:08:45;;;;;;;4.30;3.30;;;-0.40;49.90;;;;;;4962790;28;20497;-55
2023/01/28 05:11:11;;;;;;;3.30;3.00;;;-0.40;53.00;;;;;;4966645;28;20583;-55
2023/01/28 05:13:39;;;;;;;7.20;4.13;;;-0.30;52.20;;;;;;4961388;28;20461;-55
2023/01/28 05:16:07;;;;;;;5.90;3.93;;;-0.30;52.40;;;;;;4955000;28;20492;-57
2023/01/28 05:18:33;;;;;;;3.87;3.57;;;-0.40;54.60;;;;;;4954107;28;20640;-54
2023/01/28 05:21:00;;;;;;;4.80;3.83;;;-0.40;60.70;;;;;;4965783;28;20819;-56
2023/01/28 05:23:26;;;;;;;4.60;3.10;;;-0.40;65.20;;;;;;4952011;28;20575;-54
2023/01/28 05:25:53;;;;;;;2.83;2.63;;;-0.30;72.00;;;;;;4952832;28;20470;-56
2023/01/28 05:28:19;;;;;;;6.03;2.80;;;-0.30;85.20;;;;;;4953505;28;20529;-55
2023/01/28 05:30:47;;;;;;;2.47;2.37;;;-0.20;91.10;;;;;;4954965;28;20561;-55
2023/01/28 05:33:14;;;;;;;3.00;2.77;;;-0.10;92.40;;;;;;4959414;28;20904;-55
2023/01/28 05:35:41;;;;;;;4.57;2.97;;;-0.20;99.90;;;;;;4954376;28;20561;-54
2023/01/28 05:38:08;;;;;;;3.60;2.53;;;-0.10;99.90;;;;;;4951476;28;20572;-56
2023/01/28 05:40:35;;;;;;;2.70;2.50;;;-0.10;99.90;;;;;;4955957;28;20500;-56
2023/01/28 05:43:01;;;;;;;2.83;2.27;;;0.00;99.90;;;;;;4954306;28;20588;-55
2023/01/28 05:45:28;;;;;;;3.93;3.10;;;0.00;99.90;;;;;;4954762;28;20506;-55
2023/01/28 05:47:56;;;;;;;2.77;2.57;;;0.00;99.90;;;;;;4951168;28;20520;-55
2023/01/28 05:50:22;;;;;;;2.83;2.63;;;0.00;99.90;;;;;;4954416;28;20505;-54
2023/01/28 05:52:49;;;;;;;2.40;2.20;;;0.00;99.90;;;;;;4954975;29;20481;-56
2023/01/28 05:55:16;;;;;;;3.17;2.97;;;0.00;99.90;;;;;;4954312;29;20473;-56
2023/01/28 05:57:43;;;;;;;1.87;1.77;;;0.00;99.90;;;;;;4954282;29;20930;-55
2023/01/28 06:00:11;;;;;;;2.87;2.40;;;0.00;99.90;;;;;;4965523;28;20496;-55
2023/01/28 06:02:37;;;;;;;2.17;2.07;;;0.00;99.90;;;;;;4953521;28;21001;-55
2023/01/28 06:05:06;;;;;;;2.60;2.50;;;0.00;99.90;;;;;;4953392;28;20501;-54
2023/01/28 06:07:32;;;;;;;4.97;3.33;;;0.00;99.90;;;;;;4953368;28;20547;-56
2023/01/28 06:09:59;;;;;;;1.97;1.87;;;0.00;99.90;;;;;;4959477;28;21014;-55
2023/01/28 06:12:26;;;;;;;3.93;2.70;;;0.00;99.90;;;;;;4955940;28;20533;-55
2023/01/28 06:14:53;;;;;;;2.77;2.30;;;0.10;99.90;;;;;;4951410;28;20497;-54
2023/01/28 06:17:20;;;;;;;2.83;2.30;;;0.10;99.90;;;;;;4953120;28;20517;-56
2023/01/28 06:19:46;;;;;;;2.17;2.07;;;0.10;99.90;;;;;;4953736;28;20495;-55
2023/01/28 06:22:14;;;;;;;3.83;2.43;;;0.10;99.90;;;;;;4964991;28;20977;-55
2023/01/28 06:24:41;;;;;;;2.40;2.13;;;0.10;86.30;;;;;;4963634;28;21006;-56
2023/01/28 06:27:07;;;;;;;2.10;2.00;;;0.10;97.70;;;;;;4952652;29;21081;-54
2023/01/28 06:29:34;;;;;;;2.50;2.40;;;0.00;99.90;;;;;;4951452;28;20904;-56
2023/01/28 06:32:01;;;;;;;2.43;2.23;;;0.10;99.90;;;;;;4958358;28;20468;-55
2023/01/28 06:34:27;;;;;;;2.93;2.73;;;0.00;99.90;;;;;;4947438;28;20569;-54
2023/01/28 06:36:54;;;;;;;2.73;2.53;;;0.00;99.90;;;;;;4960571;28;20489;-54
2023/01/28 06:39:22;;;;;;;2.93;2.73;;;0.00;99.90;;;;;;4949756;29;20476;-55
2023/01/28 06:41:48;;;;;;;2.60;2.50;;;0.00;92.10;;;;;;4946750;28;20572;-57
2023/01/28 06:44:15;;;;;;;3.67;3.47;;;0.10;91.90;;;;;;4953442;28;20500;-55
2023/01/28 06:46:42;;;;;;;3.80;3.50;;;0.10;94.40;;;;;;4961389;28;20965;-55
2023/01/28 06:49:09;;;;;;;3.40;3.10;;;0.10;91.90;;;;;;4955844;28;20497;-55
2023/01/28 06:51:35;;;;;;;3.23;3.03;;;0.00;94.20;;;;;;4955479;28;20504;-55
2023/01/28 06:54:02;;;;;;;4.37;3.30;;;0.00;98.10;;;;;;4956073;28;20502;-56
2023/01/28 06:56:30;;;;;;;3.07;2.87;;;0.10;97.90;;;;;;4959725;28;20567;-55
2023/01/28 06:58:56;;;;;;;3.63;3.33;;;0.00;99.90;;;;;;4959556;28;20551;-55
2023/01/28 07:01:23;;;;;;;2.70;2.60;;;0.10;96.40;;;;;;4954604;28;20473;-54
2023/01/28 07:03:50;;;;;;;2.87;2.67;;;0.10;92.60;;;;;;4950914;28;20559;-55
2023/01/28 07:06:16;;;;;;;2.77;2.57;;;0.10;83.80;;;;;;4954112;28;20462;-55
2023/01/28 07:08:43;;;;;;;4.83;2.87;;;0.10;89.10;;;;;;4960787;28;20500;-55
2023/01/28 07:11:09;;;;;;;3.30;3.10;;;0.10;92.20;;;;;;4959085;28;20907;-55
2023/01/28 07:13:37;;;;;;;4.40;3.67;;;0.10;99.90;;;;;;4962025;28;20445;-54
2023/01/28 07:16:05;;;;;;;3.10;2.80;;;0.10;99.90;;;;;;4956879;28;20470;-55
2023/01/28 07:18:31;;;;;;;3.43;3.07;;;0.00;98.70;;;;;;4959593;28;20508;-54
2023/01/28 07:20:58;;;;;;;3.60;3.33;;;0.10;93.90;;;;;;4953608;28;20449;-54
2023/01/28 07:23:24;;;;;;;3.40;3.10;;;0.10;99.90;;;;;;4967391;28;20582;-56
2023/01/28 07:25:51;;;;;;;5.57;5.03;;;0.10;93.50;;;;;;4951650;28;20502;-54
2023/01/28 07:28:20;;;;;;;6.17;4.80;;;0.20;91.70;;;;;;4965552;28;20527;-53
2023/01/28 07:30:49;;;;;;;6.70;4.80;;;0.20;94.50;;;;;;4973278;28;20464;-55
2023/01/28 07:33:16;;;;;;;3.90;3.50;;;0.20;98.40;;;;;;4954302;28;20586;-54
2023/01/28 07:35:43;;;;;;;9.83;4.50;;;0.30;99.90;;;;;;4946551;28;20499;-57
2023/01/28 07:38:10;;;;;;;4.40;2.80;;;0.30;99.90;;;;;;4945748;28;20564;-57
2023/01/28 07:40:36;;;;;;;2.67;2.47;;;0.30;99.90;;;;;;4942315;28;20492;-57
2023/01/28 07:43:03;;;;;;;5.70;3.00;;;0.30;99.90;;;;;;4948549;28;20508;-57
2023/01/28 07:45:31;;;;;;;5.40;3.30;;;0.40;95.10;;;;;;4952580;28;20556;-54
2023/01/28 07:48:00;;;;;;;11.37;9.30;;;0.40;97.30;;;;;;4954045;28;20523;-57
2023/01/28 07:50:29;;;;;;;6.47;5.80;;;0.30;95.50;;;;;;4952597;28;20474;-55
2023/01/28 07:52:56;;;;;;;6.03;5.53;;;0.30;88.60;;;;;;4954673;28;21001;-56
2023/01/28 07:55:23;;;;;;;3.83;3.53;;;0.40;93.40;;;;;;4950630;28;20548;-57
2023/01/28 07:57:51;;;;;;;3.63;2.73;;;0.40;99.90;;;;;;4961814;28;20576;-55
2023/01/28 08:00:19;;;;;;;5.20;4.80;;;0.40;99.90;;;;;;4964459;28;20476;-54
2023/01/28 08:02:46;;;;;;;4.03;3.63;;;0.50;91.20;;;;;;4955737;28;20524;-54
2023/01/28 08:05:15;;;;;;;4.83;4.40;;;0.50;96.20;;;;;;4956532;28;20472;-56
2023/01/28 08:07:42;;;;;;;5.87;4.07;;;0.50;99.90;;;;;;4949894;28;21005;-55
2023/01/28 08:10:10;;;;;;;3.87;3.57;;;0.50;99.90;;;;;;4959199;28;20520;-56
2023/01/28 08:12:37;;;;;;;4.67;4.10;;;0.50;99.90;;;;;;4954777;28;20501;-56
2023/01/28 08:15:05;;;;;;;4.07;3.70;;;0.60;86.40;;;;;;4955215;29;20467;-56
2023/01/28 08:17:31;;;;;;;3.73;3.23;;;0.60;99.90;;;;;;4955776;28;20485;-55
2023/01/28 08:19:58;;;;;;;3.33;3.03;;;0.70;99.90;;;;;;4954044;28;20502;-58
2023/01/28 08:22:27;;;;;;;2.90;2.70;;;0.70;99.90;;;;;;4955308;28;20600;-56
2023/01/28 08:24:53;;;;;;;3.97;3.60;;;0.70;99.90;;;;;;4950418;28;20581;-56
2023/01/28 08:27:20;;;;;;;2.93;2.63;;;0.70;99.90;;;;;;4955532;28;20522;-56
2023/01/28 08:29:46;;;;;;;3.60;3.33;;;0.80;97.70;;;;;;4954923;28;20513;-56
2023/01/28 08:32:13;;;;;;;3.50;3.27;;;0.80;99.90;;;;;;4956901;28;20851;-55
2023/01/28 08:34:40;;;;;;;3.97;3.57;;;0.80;93.40;;;;;;4955024;28;20512;-55
2023/01/28 08:37:06;;;;;;;4.30;2.40;;;0.80;96.70;;;;;;4957551;28;20567;-55
2023/01/28 08:39:34;;;;;;;3.30;3.10;;;0.80;97.80;;;;;;4951721;28;20485;-56
2023/01/28 08:42:01;;;;;;;3.03;2.90;;;0.80;95.40;;;;;;4951746;28;20573;-56
2023/01/28 08:44:27;;;;;;;3.50;3.20;;;0.90;99.90;;;;;;4948537;28;20489;-56
2023/01/28 08:46:54;;;;;;;3.93;3.60;;;0.90;99.90;;;;;;4954604;28;20518;-56
2023/01/28 08:49:21;;;;;;;3.40;2.80;;;0.90;99.90;;;;;;4946984;28;20548;-57
2023/01/28 08:51:47;;;;;;;4.83;3.20;;;0.90;99.90;;;;;;4951136;28;20984;-56
2023/01/28 08:54:14;;;;;;;4.70;3.60;;;0.90;99.90;;;;;;4952667;28;20469;-54
2023/01/28 08:56:43;;;;;;;3.60;2.93;;;1.00;99.90;;;;;;4947773;28;20579;-57
2023/01/28 08:59:10;;;;;;;3.50;3.10;;;1.00;99.90;;;;;;4946040;28;20469;-56
2023/01/28 09:01:37;;;;;;;3.73;3.43;;;1.00;99.90;;;;;;4949146;28;20569;-56
2023/01/28 09:04:03;;;;;;;4.70;4.10;;;1.10;99.90;;;;;;4949853;28;20509;-56
2023/01/28 09:06:31;;;;;;;6.10;3.97;;;1.10;99.90;;;;;;4950998;28;20584;-55
2023/01/28 09:08:57;;;;;;;5.33;4.60;;;1.10;99.90;;;;;;4953427;28;20462;-56
2023/01/28 09:11:24;;;;;;;5.10;3.13;;;1.20;99.90;;;;;;4943942;28;20505;-54
2023/01/28 09:13:52;;;;;;;4.37;3.97;;;1.20;99.90;;;;;;4951834;28;20465;-55
2023/01/28 09:16:19;;;;;;;3.50;3.20;;;1.20;99.90;;;;;;4952630;28;20474;-54
2023/01/28 09:18:47;;;;;;;3.53;3.03;;;1.20;99.90;;;;;;4947608;28;20509;-54
2023/01/28 09:21:13;;;;;;;2.93;2.73;;;1.20;99.90;;;;;;4950992;28;20556;-56
2023/01/28 09:23:40;;;;;;;4.77;4.00;;;1.20;99.90;;;;;;4947339;28;20580;-54
2023/01/28 09:26:07;;;;;;;5.53;4.17;;;1.20;99.90;;;;;;4953263;28;20512;-54
2023/01/28 09:28:34;;;;;;;4.47;4.07;;;1.20;99.90;;;;;;4953977;29;20477;-55
2023/01/28 09:31:04;;;;;;;5.03;4.53;;;1.30;99.90;;;;;;4951834;28;20493;-56
2023/01/28 09:33:31;;;;;;;7.10;4.33;;;1.30;99.90;;;;;;4953486;28;20984;-54
2023/01/28 09:36:00;;;;;;;5.17;4.60;;;1.30;99.90;;;;;;4947542;28;20498;-54
2023/01/28 09:38:27;;;;;;;6.50;4.87;;;1.30;99.90;;;;;;4964000;28;20463;-54
2023/01/28 09:40:54;;;;;;;4.63;4.20;;;1.40;99.90;;;;;;4953060;28;20496;-54
2023/01/28 09:43:39;;;;;;;5.03;4.00;;;1.40;99.90;;;;;;4946530;28;21494;-55
2023/01/28 09:46:13;;;;;;;7.63;4.87;;;1.40;99.90;;;;;;4943277;28;20467;-55
2023/01/28 09:48:43;;;;;;;9.17;6.13;;;1.40;99.90;;;;;;4947733;28;20485;-55
2023/01/28 09:51:17;;;;;;;7.73;6.73;;;1.40;99.90;;;;;;4947908;29;20556;-55
2023/01/28 09:53:50;;;;;;;10.50;6.63;;;1.50;99.90;;;;;;4944081;28;20899;-55
2023/01/28 09:56:25;;;;;;;16.70;6.90;;;1.50;99.90;;;;;;4945562;28;20541;-55
2023/01/28 09:58:52;;;;;;;9.00;6.63;;;1.50;99.90;;;;;;4946049;28;20470;-54
2023/01/28 10:01:37;;;;;;;11.23;5.40;;;1.50;99.90;;;;;;4941874;28;20572;-54
2023/01/28 10:04:16;;;;;;;5.87;5.30;;;1.50;99.90;;;;;;4944994;28;20578;-56
2023/01/28 10:06:50;;;;;;;6.30;5.50;;;1.50;99.90;;;;;;4947426;28;21230;-55
2023/01/28 10:09:29;;;;;;;5.67;5.07;;;1.50;99.90;;;;;;4945858;28;20463;-54
2023/01/28 10:12:10;;;;;;;5.43;4.63;;;1.60;99.90;;;;;;4942393;28;20561;-56
2023/01/28 10:14:48;;;;;;;6.93;5.07;;;1.60;99.90;;;;;;4940901;28;20674;-56
2023/01/28 10:17:21;;;;;;;4.47;4.10;;;1.60;99.90;;;;;;4940952;28;20565;-54
2023/01/28 10:19:51;;;;;;;14.10;4.93;;;1.70;99.90;;;;;;4947361;28;20559;-55
2023/01/28 10:22:23;;;;;;;6.83;4.03;;;1.70;99.90;;;;;;4945825;28;20546;-55
2023/01/28 10:24:53;;;;;;;5.20;4.00;;;1.70;99.90;;;;;;4945674;28;20577;-56
2023/01/28 10:27:23;;;;;;;7.20;3.43;;;1.70;83.90;;;;;;4943765;28;20595;-55
2023/01/28 10:29:51;;;;;;;4.03;3.63;;;1.70;22.70;;;;;;4969223;23;20627;-54
2023/01/28 10:32:27;;;;;;;3.70;3.37;;;1.70;35.70;;;;;;4980938;28;20461;-52
2023/01/28 10:34:54;;;;;;;4.77;3.17;;;1.80;28.70;;;;;;4979919;28;20563;-55
2023/01/28 10:37:21;;;;;;;4.20;3.80;;;1.80;99.90;;;;;;4978172;28;20518;-55
2023/01/28 10:39:48;;;;;;;18.43;3.33;;;1.70;86.60;;;;;;4979783;28;20490;-54
2023/01/28 10:42:28;;;;;;;4.80;4.20;;;1.70;23.70;;;;;;4980135;28;20496;-55
2023/01/28 10:44:58;;;;;;;3.77;3.47;;;1.70;99.90;;;;;;4979868;28;20499;-55
2023/01/28 10:47:32;;;;;;;4.50;3.60;;;1.70;99.90;;;;;;4980871;28;20467;-55
2023/01/28 10:50:00;;;;;;;6.33;3.83;;;1.70;93.90;;;;;;4987396;28;20661;-55
2023/01/28 10:52:27;;;;;;;4.63;3.67;;;1.80;99.90;;;;;;4984573;28;20543;-54
2023/01/28 10:55:05;;;;;;;4.27;3.80;;;1.80;99.90;;;;;;4987024;28;20542;-54
2023/01/28 10:57:34;;;;;;;5.43;4.00;;;1.80;99.90;;;;;;4990653;28;20470;-52
2023/01/28 11:00:11;;;;;;;6.77;4.03;;;1.80;99.90;;;;;;4995199;28;20518;-52
2023/01/28 11:02:39;;;;;;;4.07;3.67;;;1.80;99.90;;;;;;4988179;28;20477;-51
2023/01/28 11:05:15;;;;;;;3.93;3.53;;;1.80;99.90;;;;;;4977602;28;20861;-52
2023/01/28 11:07:42;;;;;;;10.53;4.40;;;1.90;99.90;;;;;;4985930;28;20488;-52
2023/01/28 11:10:31;;;;;;;8.70;5.20;;;1.90;99.90;;;;;;4986197;28;20511;-52
2023/01/28 11:13:00;;;;;;;13.60;6.63;;;1.90;99.90;;;;;;4977050;28;20463;-52
2023/01/28 11:15:27;;;;;;;9.70;6.70;;;1.90;36.70;;;;;;4984113;28;20443;-52
2023/01/28 11:17:58;;;;;;;11.33;8.40;;;1.90;40.90;;;;;;4989735;28;20490;-52
2023/01/28 11:20:27;;;;;;;12.90;9.67;;;1.90;40.50;;;;;;4987345;28;20488;-51
2023/01/28 11:22:55;;;;;;;14.73;8.90;;;1.90;41.80;;;;;;4985878;28;20845;-52
2023/01/28 11:25:28;;;;;;;6.90;5.47;;;1.90;28.00;;;;;;4984853;28;20524;-51
2023/01/28 11:27:55;;;;;;;6.80;4.10;;;2.00;75.00;;;;;;4985289;28;20539;-52
2023/01/28 11:30:24;;;;;;;10.93;4.67;;;2.00;35.70;;;;;;4986350;28;20953;-51
2023/01/28 11:33:03;;;;;;;5.73;3.20;;;2.00;99.90;;;;;;4987952;28;20470;-51
2023/01/28 11:35:30;;;;;;;5.73;2.53;;;2.00;21.50;;;;;;4987347;28;20472;-53
2023/01/28 11:37:58;;;;;;;3.37;2.67;;;2.00;30.10;;;;;;4985524;28;20491;-52
2023/01/28 11:40:25;;;;;;;3.73;2.67;;;2.00;43.50;;;;;;4983758;28;20483;-51
2023/01/28 11:42:55;;;;;;;3.20;2.00;;;2.00;68.10;;;;;;4982386;28;20522;-51
2023/01/28 11:45:35;;;;;;;3.10;2.80;;;1.90;60.90;;;;;;4983883;28;20879;-52
2023/01/28 11:48:17;;;;;;;7.20;2.60;;;1.90;47.10;;;;;;4986581;28;20544;-52
2023/01/28 11:50:51;;;;;;;2.20;2.00;;;1.90;52.20;;;;;;4983293;28;21083;-52
2023/01/28 11:53:54;;;;;;;5.07;3.20;;;2.00;55.20;;;;;;4980275;28;21021;-51
2023/01/28 11:56:34;;;;;;;4.20;2.97;;;2.00;53.80;;;;;;4967672;28;20537;-51
2023/01/28 11:59:17;;;;;;;3.97;3.20;;;2.00;49.90;;;;;;4983750;28;20554;-52
2023/01/28 12:01:53;;;;;;;4.67;2.63;;;2.00;58.80;;;;;;4986714;28;20467;-51
2023/01/28 12:04:33;;;;;;;2.13;2.03;;;1.90;50.50;;;;;;4980291;28;20525;-52
2023/01/28 12:07:08;;;;;;;1.40;1.30;;;1.90;75.50;;;;;;4987501;28;20504;-51
2023/01/28 12:09:42;;;;;;;2.83;2.13;;;1.80;71.50;;;;;;4988509;28;20515;-51
2023/01/28 12:12:26;;;;;;;3.33;2.43;;;1.80;71.80;;;;;;4985771;28;20579;-51
2023/01/28 12:15:26;;;;;;;4.50;2.20;;;1.90;60.70;;;;;;4983492;28;20511;-51
2023/01/28 12:18:05;;;;;;;3.00;1.93;;;1.90;42.40;;;;;;4978428;28;20569;-52
2023/01/28 12:20:42;;;;;;;1.30;1.30;;;1.90;59.20;;;;;;4987824;28;20918;-51
2023/01/28 12:23:33;;;;;;;4.70;1.30;;;1.90;38.10;;;;;;4986048;28;20551;-52
2023/01/28 12:26:07;;;;;;;2.40;1.67;;;1.90;44.80;;;;;;4978229;28;20575;-52
2023/01/28 12:28:52;;;;;;;1.70;1.50;;;1.90;66.10;;;;;;4984174;28;20983;-51
2023/01/28 12:31:42;;;;;;;1.50;1.40;;;1.80;63.40;;;;;;4983157;28;20574;-51
2023/01/28 12:34:50;;;;;;;1.33;1.23;;;1.80;80.80;;;;;;4983578;28;20999;-52
2023/01/28 12:37:27;;;;;;;1.30;1.10;;;1.90;71.30;;;;;;4990171;28;20498;-51
2023/01/28 12:40:06;;;;;;;4.50;3.63;;;1.90;63.10;;;;;;4987969;28;20515;-51
2023/01/28 12:42:37;;;;;;;3.23;1.43;;;2.00;45.00;;;;;;4984953;28;20460;-52
2023/01/28 12:45:15;;;;;;;2.27;1.97;;;2.00;67.10;;;;;;4985932;28;21040;-52
2023/01/28 12:47:48;;;;;;;4.37;2.20;;;1.90;74.30;;;;;;4990857;28;20554;-52
2023/01/28 12:50:20;;;;;;;2.27;2.17;;;2.00;75.60;;;;;;4984402;28;20575;-52
2023/01/28 12:52:52;;;;;;;2.00;1.90;;;2.00;93.60;;;;;;4987407;28;20962;-51
2023/01/28 12:55:29;;;;;;;2.00;1.90;;;2.00;84.70;;;;;;4985088;28;20555;-52
2023/01/28 12:57:58;;;;;;;1.40;1.30;;;2.00;92.10;;;;;;4988579;28;20463;-52
2023/01/28 13:00:28;;;;;;;1.80;1.70;;;2.00;99.90;;;;;;4988259;28;20530;-51
2023/01/28 13:03:05;;;;;;;2.00;1.83;;;2.00;99.90;;;;;;4989391;28;20495;-52
2023/01/28 13:05:37;;;;;;;9.70;8.37;;;2.00;98.20;;;;;;4992499;28;20607;-51
2023/01/28 13:08:15;;;;;;;9.73;6.90;;;2.00;99.90;;;;;;4981906;28;20555;-51
2023/01/28 13:10:44;;;;;;;7.43;6.23;;;2.00;99.90;;;;;;4984546;28;20480;-52
2023/01/28 13:13:18;;;;;;;4.10;3.67;;;1.90;99.50;;;;;;4979598;28;20549;-52
2023/01/28 13:15:45;;;;;;;13.10;10.97;;;1.90;99.90;;;;;;4983464;28;20849;-51
2023/01/28 13:18:31;;;;;;;7.10;5.57;;;2.00;99.90;;;;;;4987785;28;20462;-51
2023/01/28 13:20:59;;;;;;;5.30;4.40;;;1.90;99.90;;;;;;4988176;28;20492;-52
2023/01/28 13:23:38;;;;;;;11.20;5.57;;;1.90;99.90;;;;;;4987051;28;20550;-52
2023/01/28 13:26:12;;;;;;;2.47;2.27;;;2.00;99.90;;;;;;4993160;28;20489;-52
2023/01/28 13:28:39;;;;;;;1.17;1.17;;;2.00;99.90;;;;;;4986374;28;20594;-51
2023/01/28 13:31:08;;;;;;;1.27;0.80;;;2.00;99.90;;;;;;4986314;28;20584;-52
2023/01/28 13:33:36;;;;;;;1.10;1.00;;;2.00;99.90;;;;;;4984347;28;20470;-52
2023/01/28 13:36:18;;;;;;;1.83;1.27;;;2.00;99.90;;;;;;4989367;28;20488;-52